Time;durP1;ratioP1;P1;durP2;ratioP2;P2;SDS_P1;SDS_P2;PMS_P1;PMS_P2;Temp;Humidity;BMP_temperature;BMP_pressure;BME280_temperature;BME280_humidity;BME280_pressure;Samples;Min_cycle;Max_cycle;Signal;HPM_P1;HPM_P2
2021/08/11 00:00:11;;;;;;;15.90;6.25;;;20.40;76.00;;;;;;5047698;28;20029;-67
2021/08/11 00:02:37;;;;;;;13.70;7.00;;;20.40;76.00;;;;;;5043149;28;20033;-67
2021/08/11 00:05:03;;;;;;;14.98;7.13;;;20.40;76.10;;;;;;5052554;28;20021;-67
2021/08/11 00:07:32;;;;;;;11.05;6.40;;;20.30;76.10;;;;;;5052697;28;20080;-67
2021/08/11 00:09:57;;;;;;;13.10;6.32;;;20.30;76.10;;;;;;5044104;28;20429;-67
2021/08/11 00:12:23;;;;;;;13.23;6.68;;;20.30;76.10;;;;;;5045888;28;20055;-67
2021/08/11 00:14:49;;;;;;;12.95;6.20;;;20.20;76.10;;;;;;5050190;28;20124;-67
2021/08/11 00:17:15;;;;;;;16.88;7.38;;;20.30;76.10;;;;;;5050170;28;20035;-67
2021/08/11 00:19:40;;;;;;;15.50;7.05;;;20.20;76.10;;;;;;5052567;28;20029;-67
2021/08/11 00:22:06;;;;;;;17.10;7.00;;;20.20;76.70;;;;;;5045350;28;20025;-67
2021/08/11 00:24:32;;;;;;;14.75;6.93;;;20.20;76.10;;;;;;5050864;28;20029;-67
2021/08/11 00:26:58;;;;;;;12.57;6.55;;;20.10;76.10;;;;;;5050868;28;20062;-67
2021/08/11 00:29:23;;;;;;;11.80;6.80;;;20.10;76.10;;;;;;5038958;28;20041;-67
2021/08/11 00:31:49;;;;;;;17.38;6.97;;;20.10;76.20;;;;;;5045999;28;20040;-67
2021/08/11 00:34:17;;;;;;;15.15;6.63;;;20.00;76.20;;;;;;5049461;28;20537;-67
2021/08/11 00:36:42;;;;;;;12.85;6.72;;;20.00;76.10;;;;;;5047235;28;20476;-67
2021/08/11 00:39:08;;;;;;;13.38;6.38;;;20.00;76.10;;;;;;5046042;28;20104;-67
2021/08/11 00:41:34;;;;;;;17.20;7.05;;;20.00;76.10;;;;;;5065494;28;20655;-67
2021/08/11 00:44:00;;;;;;;22.95;6.53;;;19.90;76.20;;;;;;5049038;28;20422;-67
2021/08/11 00:46:27;;;;;;;17.40;6.70;;;19.90;76.30;;;;;;5043444;28;20041;-67
2021/08/11 00:48:56;;;;;;;14.25;6.45;;;19.90;76.50;;;;;;5049248;28;20052;-67
2021/08/11 00:51:24;;;;;;;12.90;6.38;;;19.90;76.50;;;;;;5047797;28;20388;-65
2021/08/11 00:53:56;;;;;;;17.48;7.00;;;19.80;76.60;;;;;;5048266;28;20472;-65
2021/08/11 00:56:24;;;;;;;14.68;7.28;;;19.80;76.70;;;;;;5043712;28;20017;-65
2021/08/11 00:58:51;;;;;;;12.68;6.75;;;19.80;76.80;;;;;;5045218;28;20025;-66
2021/08/11 01:01:19;;;;;;;14.68;7.82;;;19.80;76.90;;;;;;5049588;28;20464;-65
2021/08/11 01:03:48;;;;;;;10.80;6.40;;;19.80;76.90;;;;;;5050621;28;20388;-65
2021/08/11 01:06:15;;;;;;;13.63;6.10;;;19.70;77.00;;;;;;5036798;28;20076;-65
2021/08/11 01:08:41;;;;;;;13.48;7.03;;;19.70;77.10;;;;;;5033511;28;20038;-65
2021/08/11 01:11:09;;;;;;;11.75;6.88;;;19.70;77.10;;;;;;5044163;28;20025;-65
2021/08/11 01:13:36;;;;;;;15.30;6.90;;;19.70;77.20;;;;;;5045870;28;20033;-65
2021/08/11 01:16:02;;;;;;;12.20;6.00;;;19.70;77.40;;;;;;5043020;28;20025;-65
2021/08/11 01:18:32;;;;;;;18.88;5.85;;;19.70;77.40;;;;;;5036701;28;20037;-66
2021/08/11 01:21:05;;;;;;;13.27;5.72;;;19.70;77.20;;;;;;5041074;28;20469;-66
2021/08/11 01:23:49;;;;;;;16.70;6.40;;;19.70;77.00;;;;;;5062116;28;20083;-65
2021/08/11 01:26:53;;;;;;;12.93;6.07;;;19.70;77.00;;;;;;5049328;28;20088;-65
2021/08/11 01:29:41;;;;;;;13.32;5.90;;;19.80;77.00;;;;;;5033978;28;20041;-65
2021/08/11 01:32:45;;;;;;;11.73;6.57;;;19.70;77.00;;;;;;5010085;28;20495;-65
2021/08/11 01:35:19;;;;;;;13.85;6.05;;;19.70;77.20;;;;;;5058066;28;20029;-65
2021/08/11 01:37:50;;;;;;;15.10;6.88;;;19.60;77.20;;;;;;5046834;28;20025;-65
2021/08/11 01:40:21;;;;;;;12.45;6.72;;;19.60;77.50;;;;;;5048585;28;20033;-65
2021/08/11 01:42:50;;;;;;;12.98;5.90;;;19.60;77.60;;;;;;5046468;28;20047;-65
2021/08/11 01:45:21;;;;;;;12.68;6.28;;;19.60;77.70;;;;;;5048977;28;20025;-65
2021/08/11 01:47:59;;;;;;;13.25;6.80;;;19.60;77.80;;;;;;5041302;28;20045;-65
2021/08/11 01:50:29;;;;;;;13.95;6.60;;;19.60;77.80;;;;;;5036151;28;20032;-65
2021/08/11 01:52:56;;;;;;;11.88;6.28;;;19.60;77.80;;;;;;5049070;28;20021;-65
2021/08/11 01:55:26;;;;;;;13.10;7.07;;;19.50;77.90;;;;;;5046751;28;20079;-65
2021/08/11 01:57:54;;;;;;;21.15;7.10;;;19.50;77.90;;;;;;5046041;28;20037;-65
2021/08/11 02:00:30;;;;;;;12.65;7.28;;;19.50;77.80;;;;;;5047885;28;20033;-65
2021/08/11 02:02:59;;;;;;;16.42;7.07;;;19.50;77.80;;;;;;5050728;28;20025;-65
2021/08/11 02:05:28;;;;;;;17.05;7.00;;;19.50;77.80;;;;;;5051900;28;20020;-65
2021/08/11 02:07:58;;;;;;;13.95;7.57;;;19.50;77.90;;;;;;5049314;28;20040;-65
2021/08/11 02:10:24;;;;;;;12.65;7.20;;;19.40;77.90;;;;;;5051032;28;20426;-65
2021/08/11 02:12:50;;;;;;;14.77;6.75;;;19.40;77.90;;;;;;5052342;28;20029;-66
2021/08/11 02:15:17;;;;;;;14.90;6.80;;;19.40;77.90;;;;;;5049261;28;20029;-65
2021/08/11 02:17:43;;;;;;;16.90;7.05;;;19.40;78.00;;;;;;5052654;28;20488;-65
2021/08/11 02:20:11;;;;;;;11.07;6.07;;;19.40;77.90;;;;;;5052843;28;20249;-65
2021/08/11 02:22:37;;;;;;;14.73;6.45;;;19.30;77.90;;;;;;5069115;28;20491;-66
2021/08/11 02:25:12;;;;;;;22.40;7.30;;;19.30;78.00;;;;;;5048878;28;20032;-65
2021/08/11 02:27:51;;;;;;;14.48;6.93;;;19.30;78.00;;;;;;5051467;28;20049;-65
2021/08/11 02:30:22;;;;;;;17.60;8.32;;;19.30;77.90;;;;;;5049395;28;20116;-65
2021/08/11 02:33:05;;;;;;;12.82;6.80;;;19.20;78.00;;;;;;5053130;28;20021;-65
2021/08/11 02:35:37;;;;;;;13.48;6.47;;;19.30;78.10;;;;;;5048732;28;20579;-65
2021/08/11 02:38:16;;;;;;;10.68;6.45;;;19.20;78.10;;;;;;5065648;28;20379;-65
2021/08/11 02:40:47;;;;;;;13.02;6.50;;;19.20;78.10;;;;;;5045953;28;20074;-65
2021/08/11 02:43:28;;;;;;;14.23;7.20;;;19.20;78.10;;;;;;5064185;28;20036;-66
2021/08/11 02:45:57;;;;;;;16.33;6.80;;;19.20;78.10;;;;;;5050759;28;20110;-65
2021/08/11 02:48:24;;;;;;;13.57;7.10;;;19.20;78.10;;;;;;5043747;28;20047;-65
2021/08/11 02:50:51;;;;;;;13.02;6.43;;;19.10;78.20;;;;;;5042605;28;20028;-65
2021/08/11 02:53:23;;;;;;;12.20;7.45;;;19.00;78.30;;;;;;5045272;28;20103;-65
2021/08/11 02:55:50;;;;;;;15.68;7.38;;;19.00;78.50;;;;;;5050148;28;20036;-65
2021/08/11 02:58:18;;;;;;;12.77;7.95;;;19.00;78.50;;;;;;5044042;28;20034;-65
2021/08/11 03:00:46;;;;;;;14.15;7.60;;;19.00;78.60;;;;;;5067515;28;20071;-65
2021/08/11 03:03:13;;;;;;;14.95;7.25;;;19.00;78.70;;;;;;5046079;28;20084;-65
2021/08/11 03:05:39;;;;;;;12.48;6.75;;;19.00;78.80;;;;;;5037230;28;20036;-65
2021/08/11 03:08:07;;;;;;;13.07;7.50;;;18.90;78.80;;;;;;5045845;28;20123;-65
2021/08/11 03:10:33;;;;;;;13.43;6.93;;;18.90;78.70;;;;;;5048436;28;20480;-65
2021/08/11 03:13:00;;;;;;;24.33;7.32;;;18.90;78.70;;;;;;5043610;28;20549;-65
2021/08/11 03:15:28;;;;;;;14.05;6.88;;;18.90;78.80;;;;;;5045809;28;20029;-65
2021/08/11 03:17:54;;;;;;;18.33;7.68;;;18.90;79.00;;;;;;5048635;28;20021;-65
2021/08/11 03:20:21;;;;;;;18.05;7.10;;;18.90;79.10;;;;;;5051273;28;20464;-65
2021/08/11 03:22:47;;;;;;;13.00;7.00;;;18.80;79.10;;;;;;5049919;28;20060;-65
2021/08/11 03:25:12;;;;;;;11.23;7.00;;;18.80;79.20;;;;;;5049061;28;20089;-66
2021/08/11 03:27:39;;;;;;;13.52;6.65;;;18.80;79.20;;;;;;5043592;28;20140;-65
2021/08/11 03:30:14;;;;;;;15.18;7.53;;;18.80;79.30;;;;;;5048213;28;20051;-65
2021/08/11 03:32:43;;;;;;;17.17;7.93;;;18.80;79.40;;;;;;5050867;28;20083;-65
2021/08/11 03:35:09;;;;;;;18.98;7.90;;;18.60;79.20;;;;;;5051339;28;20436;-66
2021/08/11 03:37:35;;;;;;;12.88;7.38;;;18.70;79.40;;;;;;5045938;28;20047;-65
2021/08/11 03:40:04;;;;;;;16.30;7.60;;;18.70;79.60;;;;;;5038967;28;20068;-65
2021/08/11 03:42:30;;;;;;;20.83;7.43;;;18.60;79.50;;;;;;5059055;28;20048;-66
2021/08/11 03:44:56;;;;;;;10.52;6.60;;;18.60;79.70;;;;;;5050000;28;20049;-66
2021/08/11 03:47:22;;;;;;;13.15;7.47;;;18.60;79.70;;;;;;5050427;28;20099;-66
2021/08/11 03:49:50;;;;;;;15.10;7.15;;;18.60;79.80;;;;;;5046520;28;20039;-65
2021/08/11 03:52:16;;;;;;;14.38;7.15;;;18.60;79.80;;;;;;5042853;28;20029;-65
2021/08/11 03:54:42;;;;;;;16.13;7.22;;;18.60;79.90;;;;;;5060193;28;20495;-65
2021/08/11 03:57:08;;;;;;;12.75;7.18;;;18.60;80.00;;;;;;5051626;28;20115;-65
2021/08/11 03:59:34;;;;;;;13.45;6.97;;;18.60;80.10;;;;;;5049817;28;20029;-65
2021/08/11 04:02:01;;;;;;;13.00;6.70;;;18.60;79.90;;;;;;5046136;28;20044;-65
2021/08/11 04:04:27;;;;;;;14.05;7.07;;;18.50;79.80;;;;;;5047728;28;20114;-65
2021/08/11 04:06:52;;;;;;;12.25;6.78;;;18.50;79.70;;;;;;5046961;28;20028;-65
2021/08/11 04:09:18;;;;;;;13.70;6.63;;;18.40;79.70;;;;;;5046153;28;20500;-65
2021/08/11 04:11:45;;;;;;;14.98;6.88;;;18.40;79.70;;;;;;5047318;28;20065;-65
2021/08/11 04:14:12;;;;;;;11.32;7.03;;;18.50;79.70;;;;;;5044198;28;20055;-65
2021/08/11 04:16:38;;;;;;;14.88;7.20;;;18.30;79.60;;;;;;5046244;28;20044;-65
2021/08/11 04:19:04;;;;;;;15.35;6.57;;;18.40;79.80;;;;;;5051745;28;20045;-65
2021/08/11 04:21:29;;;;;;;14.07;6.38;;;18.40;79.90;;;;;;5050605;28;20132;-65
2021/08/11 04:23:55;;;;;;;13.90;6.18;;;18.30;79.90;;;;;;5045615;28;20033;-65
2021/08/11 04:26:21;;;;;;;13.82;7.25;;;18.30;79.90;;;;;;5050768;28;20391;-65
2021/08/11 04:28:48;;;;;;;13.68;6.72;;;18.30;79.90;;;;;;5041377;28;20049;-65
2021/08/11 04:31:13;;;;;;;13.73;6.85;;;18.30;80.00;;;;;;5046200;28;20036;-66
2021/08/11 04:33:39;;;;;;;13.27;7.20;;;18.30;80.20;;;;;;5049521;28;20044;-65
2021/08/11 04:36:04;;;;;;;13.93;6.53;;;18.30;80.30;;;;;;5045429;28;20395;-65
2021/08/11 04:38:30;;;;;;;13.23;7.20;;;18.30;80.30;;;;;;5042349;28;20108;-65
2021/08/11 04:40:56;;;;;;;11.60;6.65;;;18.30;80.20;;;;;;5048388;28;20036;-65
2021/08/11 04:43:22;;;;;;;10.18;5.90;;;18.30;80.40;;;;;;5051281;28;20131;-65
2021/08/11 04:45:47;;;;;;;12.80;6.60;;;18.20;80.10;;;;;;5044671;28;20052;-65
2021/08/11 04:48:13;;;;;;;12.82;6.68;;;18.30;80.20;;;;;;5045185;28;20048;-65
2021/08/11 04:50:39;;;;;;;12.65;6.68;;;18.20;80.20;;;;;;5049789;28;20029;-65
2021/08/11 04:53:04;;;;;;;12.68;7.00;;;18.20;80.30;;;;;;5042501;28;20041;-66
2021/08/11 04:55:30;;;;;;;10.98;7.10;;;18.20;80.40;;;;;;5048872;28;20097;-65
2021/08/11 04:57:56;;;;;;;10.85;5.88;;;18.20;80.50;;;;;;5050332;28;20126;-65
2021/08/11 05:00:22;;;;;;;13.57;6.65;;;18.20;80.60;;;;;;5052158;28;20025;-65
2021/08/11 05:02:47;;;;;;;15.77;7.45;;;18.20;81.40;;;;;;5049226;28;20040;-65
2021/08/11 05:05:13;;;;;;;10.43;6.15;;;18.20;81.00;;;;;;5049251;28;20033;-65
2021/08/11 05:07:44;;;;;;;12.95;6.85;;;18.20;81.10;;;;;;5051714;28;20128;-65
2021/08/11 05:10:10;;;;;;;12.30;6.93;;;18.20;81.20;;;;;;5048920;28;20044;-65
2021/08/11 05:12:36;;;;;;;14.63;7.10;;;18.20;81.10;;;;;;5051560;28;20056;-65
2021/08/11 05:15:04;;;;;;;13.68;6.63;;;18.20;81.10;;;;;;5050680;28;20122;-65
2021/08/11 05:17:30;;;;;;;11.90;6.00;;;18.20;81.00;;;;;;5051010;28;20124;-65
2021/08/11 05:19:55;;;;;;;14.95;6.68;;;18.20;80.90;;;;;;5049771;28;20123;-65
2021/08/11 05:22:22;;;;;;;17.05;7.18;;;18.20;81.10;;;;;;5049194;28;20110;-65
2021/08/11 05:24:49;;;;;;;13.23;6.55;;;18.20;81.30;;;;;;5050520;28;20041;-65
2021/08/11 05:27:15;;;;;;;10.88;6.75;;;18.20;81.40;;;;;;5048086;28;20040;-69
2021/08/11 05:29:47;;;;;;;12.57;6.78;;;18.30;81.50;;;;;;5049419;28;20037;-70
2021/08/11 05:32:16;;;;;;;10.77;6.47;;;18.30;81.50;;;;;;5048564;28;20423;-69
2021/08/11 05:34:43;;;;;;;12.07;6.40;;;18.30;81.20;;;;;;5048068;28;20419;-69
2021/08/11 05:37:09;;;;;;;13.90;6.35;;;18.30;81.00;;;;;;5052812;28;20385;-66
2021/08/11 05:39:34;;;;;;;10.48;6.38;;;18.30;81.10;;;;;;5046685;28;20038;-66
2021/08/11 05:42:00;;;;;;;13.98;6.60;;;18.20;80.90;;;;;;5049958;28;20056;-66
2021/08/11 05:44:26;;;;;;;11.27;6.75;;;18.20;80.90;;;;;;5054516;28;20415;-66
2021/08/11 05:46:51;;;;;;;16.70;7.28;;;18.20;81.10;;;;;;5054749;28;20048;-66
2021/08/11 05:49:17;;;;;;;13.13;6.43;;;18.20;81.00;;;;;;5053551;28;20033;-66
2021/08/11 05:51:43;;;;;;;12.35;6.95;;;18.20;80.90;;;;;;5047095;28;20043;-66
2021/08/11 05:54:08;;;;;;;9.18;4.93;;;18.30;81.10;;;;;;5052869;28;20033;-69
2021/08/11 05:56:34;;;;;;;16.45;5.88;;;18.30;81.40;;;;;;5052444;28;20033;-69
2021/08/11 05:59:00;;;;;;;13.73;5.68;;;18.30;81.60;;;;;;5054197;28;20029;-69
2021/08/11 06:01:26;;;;;;;9.95;5.10;;;18.30;81.60;;;;;;5053476;28;20036;-69
2021/08/11 06:03:54;;;;;;;16.42;6.35;;;18.30;81.40;;;;;;5051979;28;20480;-69
2021/08/11 06:06:20;;;;;;;10.68;5.65;;;18.30;81.90;;;;;;5046775;28;20036;-69
2021/08/11 06:08:46;;;;;;;15.57;4.90;;;18.30;81.80;;;;;;5051183;28;20044;-71
2021/08/11 06:11:11;;;;;;;21.58;5.55;;;18.40;81.50;;;;;;5054334;28;20025;-68
2021/08/11 06:13:37;;;;;;;16.10;6.03;;;18.40;81.50;;;;;;5053738;28;20041;-72
2021/08/11 06:16:04;;;;;;;16.23;5.80;;;18.40;81.10;;;;;;5053247;28;20025;-69
2021/08/11 06:18:29;;;;;;;8.70;5.57;;;18.40;80.80;;;;;;5047181;28;20037;-69
2021/08/11 06:20:55;;;;;;;13.00;5.15;;;18.40;80.80;;;;;;5045085;28;20022;-69
2021/08/11 06:23:21;;;;;;;9.88;5.13;;;18.40;81.10;;;;;;5054354;28;20056;-69
2021/08/11 06:25:47;;;;;;;13.23;6.55;;;18.40;80.90;;;;;;5053740;28;20032;-69
2021/08/11 06:28:13;;;;;;;14.40;6.53;;;18.40;81.60;;;;;;5049876;28;20041;-69
2021/08/11 06:30:40;;;;;;;15.35;6.30;;;18.40;81.40;;;;;;5053893;28;20021;-69
2021/08/11 06:33:06;;;;;;;15.60;6.43;;;18.50;81.50;;;;;;5054683;28;20029;-69
2021/08/11 06:35:32;;;;;;;12.90;5.95;;;18.40;81.20;;;;;;5042450;28;20029;-69
2021/08/11 06:37:58;;;;;;;13.75;5.78;;;18.40;81.00;;;;;;5053118;28;20416;-69
2021/08/11 06:40:23;;;;;;;13.77;6.13;;;18.40;81.20;;;;;;5051007;28;20041;-69
2021/08/11 06:42:50;;;;;;;11.75;5.32;;;18.40;81.30;;;;;;5047910;28;20028;-69
2021/08/11 06:45:21;;;;;;;12.20;5.28;;;18.50;81.20;;;;;;5050288;28;20024;-69
2021/08/11 06:47:48;;;;;;;15.80;5.90;;;18.40;81.00;;;;;;5042745;28;20084;-69
2021/08/11 06:50:14;;;;;;;12.82;5.65;;;18.50;81.30;;;;;;5046529;28;20072;-68
2021/08/11 06:52:40;;;;;;;10.70;5.20;;;18.40;81.50;;;;;;5051665;28;20033;-69
2021/08/11 06:55:08;;;;;;;11.10;5.50;;;18.50;81.90;;;;;;5052909;28;20423;-68
2021/08/11 06:57:34;;;;;;;14.80;5.80;;;18.50;81.60;;;;;;5053151;28;20048;-68
2021/08/11 07:00:00;;;;;;;13.90;6.60;;;18.60;81.90;;;;;;5049531;28;20029;-68
2021/08/11 07:02:29;;;;;;;15.07;7.00;;;18.60;82.30;;;;;;5053302;28;20104;-69
2021/08/11 07:04:54;;;;;;;7.95;3.65;;;18.60;82.20;;;;;;5049444;28;20139;-69
2021/08/11 07:07:20;;;;;;;14.70;5.03;;;18.60;81.40;;;;;;5049867;28;20112;-69
2021/08/11 07:09:46;;;;;;;12.85;5.10;;;18.60;81.50;;;;;;5044648;28;20472;-69
2021/08/11 07:12:11;;;;;;;12.50;6.10;;;18.70;81.60;;;;;;5046867;28;20037;-70
2021/08/11 07:14:37;;;;;;;16.45;5.72;;;18.70;81.70;;;;;;5050947;28;20033;-68
2021/08/11 07:17:03;;;;;;;14.30;5.93;;;18.70;81.60;;;;;;5036955;28;20037;-69
2021/08/11 07:19:28;;;;;;;10.93;5.40;;;18.70;81.60;;;;;;5048436;28;20036;-69
2021/08/11 07:21:54;;;;;;;16.92;5.63;;;18.80;81.60;;;;;;5047204;28;20034;-69
2021/08/11 07:24:20;;;;;;;15.13;4.43;;;18.80;82.20;;;;;;5034239;28;20030;-68
2021/08/11 07:26:46;;;;;;;10.43;4.68;;;18.80;81.30;;;;;;5049199;28;20075;-69
2021/08/11 07:29:12;;;;;;;8.85;4.97;;;18.90;81.40;;;;;;5043096;28;20389;-69
2021/08/11 07:31:37;;;;;;;9.23;4.78;;;18.90;81.40;;;;;;5045397;28;20488;-69
2021/08/11 07:34:04;;;;;;;5.25;1.98;;;18.90;81.60;;;;;;5045261;28;20107;-69
2021/08/11 07:36:29;;;;;;;11.68;4.88;;;18.90;81.00;;;;;;5045573;28;20047;-70
2021/08/11 07:38:55;;;;;;;8.23;3.10;;;18.90;81.50;;;;;;5046688;28;20108;-70
2021/08/11 07:41:21;;;;;;;9.52;4.60;;;19.00;81.10;;;;;;5050149;28;20017;-70
2021/08/11 07:43:46;;;;;;;11.18;4.32;;;19.00;81.50;;;;;;5049759;28;20021;-70
2021/08/11 07:46:15;;;;;;;8.27;4.55;;;19.00;81.60;;;;;;5048833;28;20447;-70
2021/08/11 07:48:41;;;;;;;12.13;4.78;;;19.10;81.40;;;;;;5049531;28;20063;-69
2021/08/11 07:51:06;;;;;;;9.07;4.45;;;19.10;81.50;;;;;;5049926;28;20108;-70
2021/08/11 07:53:32;;;;;;;10.85;4.43;;;19.10;81.40;;;;;;5048724;28;20040;-70
2021/08/11 07:56:00;;;;;;;8.13;3.47;;;19.20;81.60;;;;;;5047027;28;20059;-70
2021/08/11 07:58:26;;;;;;;15.15;4.15;;;19.20;81.40;;;;;;5050727;28;20032;-70
2021/08/11 08:00:52;;;;;;;12.05;4.78;;;19.20;81.50;;;;;;5044864;28;20029;-70
2021/08/11 08:03:18;;;;;;;11.52;4.35;;;19.20;81.60;;;;;;5049245;28;20119;-71
2021/08/11 08:05:44;;;;;;;14.80;4.22;;;19.30;81.50;;;;;;5050027;28;20215;-70
2021/08/11 08:08:09;;;;;;;10.60;2.90;;;19.30;81.60;;;;;;5049171;28;20040;-70
2021/08/11 08:10:36;;;;;;;9.32;4.03;;;19.30;81.30;;;;;;5048831;28;20052;-71
2021/08/11 08:13:02;;;;;;;14.52;4.00;;;19.30;81.80;;;;;;5046818;28;20091;-71
2021/08/11 08:15:29;;;;;;;6.30;2.22;;;19.30;81.80;;;;;;5050774;28;20022;-71
2021/08/11 08:17:57;;;;;;;10.63;4.10;;;19.30;81.70;;;;;;5048926;28;20036;-71
2021/08/11 08:20:22;;;;;;;9.60;3.92;;;19.40;82.40;;;;;;5045871;28;20029;-71
2021/08/11 08:22:49;;;;;;;14.18;4.60;;;19.40;82.30;;;;;;5047971;28;20021;-71
2021/08/11 08:25:22;;;;;;;16.02;3.90;;;19.40;82.50;;;;;;5050668;28;20037;-70
2021/08/11 08:27:52;;;;;;;12.05;3.97;;;19.40;82.40;;;;;;5047636;28;20545;-71
2021/08/11 08:30:19;;;;;;;14.07;3.90;;;19.40;82.40;;;;;;5047516;28;20384;-70
2021/08/11 08:32:49;;;;;;;15.32;3.80;;;19.50;82.50;;;;;;5049937;28;20082;-71
2021/08/11 08:35:15;;;;;;;8.32;3.95;;;19.50;82.50;;;;;;5050091;28;20047;-70
2021/08/11 08:37:41;;;;;;;14.65;3.60;;;19.50;82.70;;;;;;5050276;28;20025;-70
2021/08/11 08:40:13;;;;;;;6.95;2.85;;;19.60;82.50;;;;;;5050461;28;20406;-70
2021/08/11 08:42:40;;;;;;;8.13;3.22;;;19.70;82.60;;;;;;5045127;28;20040;-71
2021/08/11 08:45:07;;;;;;;12.13;4.00;;;19.60;82.60;;;;;;5049684;28;20032;-71
2021/08/11 08:47:35;;;;;;;15.45;3.90;;;19.70;83.10;;;;;;5049424;28;20071;-73
2021/08/11 08:50:02;;;;;;;8.00;3.75;;;19.70;83.00;;;;;;5047497;28;20029;-71
2021/08/11 08:52:29;;;;;;;9.75;4.20;;;19.80;83.30;;;;;;5050154;28;20522;-70
2021/08/11 08:54:59;;;;;;;10.45;4.60;;;19.90;83.40;;;;;;5047772;28;20037;-71
2021/08/11 08:57:26;;;;;;;15.90;3.45;;;19.80;83.80;;;;;;5047409;28;20036;-71
2021/08/11 08:59:52;;;;;;;14.10;3.53;;;19.90;83.70;;;;;;5047797;28;20072;-70
2021/08/11 09:02:18;;;;;;;6.78;3.25;;;19.90;83.90;;;;;;5046800;28;20036;-70
2021/08/11 09:04:44;;;;;;;8.25;3.75;;;19.90;83.80;;;;;;5046752;28;20033;-70
2021/08/11 09:07:14;;;;;;;11.43;3.83;;;20.00;83.90;;;;;;5047991;28;20075;-70
2021/08/11 09:09:40;;;;;;;7.43;3.75;;;20.00;83.70;;;;;;5046760;28;20072;-71
2021/08/11 09:12:15;;;;;;;10.57;3.60;;;20.10;83.50;;;;;;5050499;28;20115;-71
2021/08/11 09:14:44;;;;;;;9.23;3.78;;;20.20;83.80;;;;;;5046684;28;20028;-70
2021/08/11 09:17:29;;;;;;;9.27;4.00;;;20.20;84.00;;;;;;5047289;28;20036;-70
2021/08/11 09:19:55;;;;;;;11.50;4.28;;;20.20;83.90;;;;;;5047215;28;20497;-69
2021/08/11 09:22:21;;;;;;;10.10;3.55;;;20.30;84.10;;;;;;5045940;28;20036;-69
2021/08/11 09:24:46;;;;;;;8.70;3.80;;;20.30;83.70;;;;;;5049092;28;20025;-66
2021/08/11 09:27:24;;;;;;;9.82;4.85;;;20.40;83.90;;;;;;5045570;28;20087;-73
2021/08/11 09:30:05;;;;;;;11.82;4.53;;;20.40;83.80;;;;;;5050160;28;20120;-70
2021/08/11 09:32:32;;;;;;;11.60;4.30;;;20.40;83.50;;;;;;5045953;28;20036;-70
2021/08/11 09:35:04;;;;;;;11.63;4.65;;;20.50;83.70;;;;;;5036104;28;20041;-67
2021/08/11 09:37:44;;;;;;;9.60;4.10;;;20.60;83.80;;;;;;5046263;28;20116;-71
2021/08/11 09:40:11;;;;;;;9.45;3.58;;;20.60;83.60;;;;;;5050025;28;20091;-67
2021/08/11 09:42:37;;;;;;;16.30;4.25;;;20.70;83.70;;;;;;5048412;28;20075;-68
2021/08/11 09:45:03;;;;;;;10.98;4.45;;;20.70;83.60;;;;;;5047846;28;20041;-68
2021/08/11 09:47:29;;;;;;;14.13;4.63;;;20.70;83.50;;;;;;5049238;28;20060;-67
2021/08/11 09:49:59;;;;;;;12.52;3.58;;;20.80;83.50;;;;;;5044025;28;20029;-67
2021/08/11 09:52:26;;;;;;;10.65;4.10;;;20.80;83.50;;;;;;5049961;28;20127;-68
2021/08/11 09:55:01;;;;;;;10.18;4.03;;;20.90;83.60;;;;;;5051070;28;20108;-67
2021/08/11 09:57:29;;;;;;;9.48;3.58;;;20.90;83.60;;;;;;5050860;28;20029;-68
2021/08/11 09:59:59;;;;;;;7.80;4.00;;;21.00;83.40;;;;;;5045834;28;20119;-68
2021/08/11 10:02:27;;;;;;;12.77;3.15;;;21.00;83.40;;;;;;5048979;28;20094;-68
2021/08/11 10:04:53;;;;;;;8.00;3.05;;;21.10;83.70;;;;;;5046713;28;20060;-70
2021/08/11 10:07:19;;;;;;;8.07;4.38;;;21.10;83.40;;;;;;5050100;28;20057;-71
2021/08/11 10:10:01;;;;;;;6.60;2.53;;;21.20;83.10;;;;;;5050165;28;20029;-73
2021/08/11 10:12:28;;;;;;;9.13;4.40;;;21.30;83.10;;;;;;5051241;28;20419;-68
2021/08/11 10:14:58;;;;;;;8.85;3.17;;;21.40;82.70;;;;;;5046746;28;20120;-68
2021/08/11 10:17:29;;;;;;;9.75;3.92;;;21.40;82.50;;;;;;5037084;28;20037;-68
2021/08/11 10:19:58;;;;;;;6.72;3.33;;;21.50;83.00;;;;;;5046946;28;20041;-67
2021/08/11 10:22:25;;;;;;;6.57;3.40;;;21.50;82.50;;;;;;5050737;28;20061;-69
2021/08/11 10:24:54;;;;;;;8.30;3.88;;;21.50;82.20;;;;;;5051806;28;20490;-68
2021/08/11 10:27:20;;;;;;;10.00;4.15;;;21.50;82.00;;;;;;5039441;28;20071;-67
2021/08/11 10:29:47;;;;;;;3.78;2.00;;;21.60;82.30;;;;;;5040569;28;20120;-69
2021/08/11 10:32:13;;;;;;;10.13;3.63;;;21.60;82.50;;;;;;5047047;28;20039;-67
2021/08/11 10:34:40;;;;;;;4.88;2.22;;;21.60;82.20;;;;;;5048190;28;20067;-70
2021/08/11 10:37:07;;;;;;;7.25;3.63;;;21.60;82.30;;;;;;5050433;28;20017;-70
2021/08/11 10:39:36;;;;;;;4.68;3.00;;;21.70;82.10;;;;;;5048644;28;20036;-71
2021/08/11 10:42:10;;;;;;;4.32;2.58;;;21.70;81.90;;;;;;5048483;28;20112;-70
2021/08/11 10:44:37;;;;;;;9.10;3.92;;;21.70;82.00;;;;;;5049600;28;20033;-70
2021/08/11 10:47:03;;;;;;;8.27;3.10;;;21.80;81.60;;;;;;5052677;28;20060;-70
2021/08/11 10:49:30;;;;;;;13.35;4.03;;;21.80;81.80;;;;;;5052440;28;20480;-69
2021/08/11 10:52:17;;;;;;;8.60;3.13;;;21.90;81.70;;;;;;5049852;28;20435;-68
2021/08/11 10:54:56;;;;;;;9.57;3.10;;;22.00;81.80;;;;;;5052755;28;20500;-68
2021/08/11 10:57:43;;;;;;;6.75;3.08;;;22.00;81.50;;;;;;5052242;28;20027;-68
2021/08/11 11:00:21;;;;;;;20.15;2.75;;;22.00;81.50;;;;;;5051333;28;20476;-68
2021/08/11 11:02:49;;;;;;;3.25;2.08;;;22.10;81.40;;;;;;5048298;28;20016;-68
2021/08/11 11:05:20;;;;;;;8.63;3.22;;;22.10;81.70;;;;;;5051233;28;20395;-67
2021/08/11 11:08:08;;;;;;;8.75;3.67;;;22.10;81.30;;;;;;5050120;28;20052;-68
2021/08/11 11:10:35;;;;;;;10.93;3.35;;;22.20;81.00;;;;;;5047609;28;20036;-67
2021/08/11 11:13:01;;;;;;;5.65;2.47;;;22.30;80.90;;;;;;5050648;28;20025;-67
2021/08/11 11:15:42;;;;;;;5.90;2.17;;;22.40;81.00;;;;;;5049293;28;20067;-68
2021/08/11 11:18:20;;;;;;;8.05;4.07;;;22.50;81.30;;;;;;5046886;28;20115;-68
2021/08/11 11:20:46;;;;;;;5.35;3.22;;;22.50;80.60;;;;;;5048241;28;20025;-68
2021/08/11 11:23:33;;;;;;;7.53;3.78;;;22.50;80.70;;;;;;5049250;28;20029;-68
2021/08/11 11:26:04;;;;;;;7.25;2.60;;;22.60;80.90;;;;;;5049982;28;20489;-68
2021/08/11 11:28:56;;;;;;;7.75;2.50;;;22.70;80.70;;;;;;5047478;28;20037;-67
2021/08/11 11:31:29;;;;;;;7.25;2.72;;;22.70;80.60;;;;;;5047704;28;20036;-68
2021/08/11 11:34:14;;;;;;;6.80;2.90;;;22.80;80.60;;;;;;5048575;28;20480;-67
2021/08/11 11:36:41;;;;;;;8.60;3.38;;;22.80;80.60;;;;;;5047520;28;20067;-67
2021/08/11 11:39:10;;;;;;;7.35;3.08;;;22.90;80.20;;;;;;5047049;28;20032;-67
2021/08/11 11:41:36;;;;;;;7.03;3.53;;;22.90;79.60;;;;;;5049864;28;20079;-67
2021/08/11 11:44:40;;;;;;;8.70;2.45;;;22.90;79.50;;;;;;5049480;28;20041;-67
2021/08/11 11:47:06;;;;;;;5.50;2.63;;;23.00;79.70;;;;;;5049900;28;20048;-67
2021/08/11 11:49:31;;;;;;;5.55;3.53;;;23.00;79.50;;;;;;5049998;28;20036;-67
2021/08/11 11:51:57;;;;;;;5.65;3.42;;;23.10;79.30;;;;;;5049197;28;20027;-67
2021/08/11 11:54:23;;;;;;;6.03;2.78;;;23.10;79.00;;;;;;5048678;28;20447;-68
2021/08/11 11:56:49;;;;;;;3.25;2.00;;;23.20;79.30;;;;;;5050092;28;20036;-67
2021/08/11 11:59:15;;;;;;;5.18;2.47;;;23.30;79.30;;;;;;5049461;28;20032;-68
2021/08/11 12:01:41;;;;;;;7.95;3.00;;;23.30;78.50;;;;;;5049792;28;20108;-68
2021/08/11 12:04:09;;;;;;;10.05;3.10;;;23.40;78.50;;;;;;5049636;28;20071;-68
2021/08/11 12:06:45;;;;;;;9.43;3.55;;;23.40;78.70;;;;;;5047023;28;20053;-68
2021/08/11 12:09:11;;;;;;;10.30;3.40;;;23.40;78.40;;;;;;5050126;28;20515;-68
2021/08/11 12:11:37;;;;;;;4.63;2.28;;;23.50;78.00;;;;;;5047546;28;20029;-68
2021/08/11 12:14:03;;;;;;;5.20;3.05;;;23.50;78.40;;;;;;5048150;28;20104;-68
2021/08/11 12:16:42;;;;;;;3.88;1.90;;;23.60;77.00;;;;;;5049899;28;20476;-68
2021/08/11 12:19:10;;;;;;;1.85;1.40;;;23.70;77.70;;;;;;5047166;28;20476;-68
2021/08/11 12:21:36;;;;;;;5.30;1.92;;;23.70;77.60;;;;;;5050587;28;20427;-68
2021/08/11 12:24:02;;;;;;;8.20;2.83;;;23.70;77.30;;;;;;5048481;28;20060;-69
2021/08/11 12:26:32;;;;;;;4.93;3.00;;;23.80;76.70;;;;;;5049663;28;20079;-68
2021/08/11 12:29:01;;;;;;;8.20;3.33;;;23.80;76.40;;;;;;5047055;28;20485;-67
2021/08/11 12:31:32;;;;;;;9.80;2.95;;;23.80;77.00;;;;;;5048862;28;20025;-68
2021/08/11 12:33:58;;;;;;;4.15;2.13;;;23.90;76.90;;;;;;5049306;28;20039;-68
2021/08/11 12:36:32;;;;;;;4.28;2.20;;;23.90;77.00;;;;;;5050637;28;20028;-68
2021/08/11 12:39:02;;;;;;;2.17;1.67;;;24.00;76.50;;;;;;5047217;28;20056;-67
2021/08/11 12:41:29;;;;;;;4.82;1.98;;;24.00;76.50;;;;;;5047981;28;20029;-70
2021/08/11 12:43:57;;;;;;;6.35;2.70;;;24.00;76.10;;;;;;5049085;28;20028;-70
2021/08/11 12:46:44;;;;;;;6.43;2.90;;;24.00;75.80;;;;;;5047606;28;20112;-70